Time;durP1;ratioP1;P1;durP2;ratioP2;P2;SDS_P1;SDS_P2;PMS_P1;PMS_P2;Temp;Humidity;BMP_temperature;BMP_pressure;BME280_temperature;BME280_humidity;BME280_pressure;Samples;Min_cycle;Max_cycle;Signal;HPM_P1;HPM_P2
2022/12/27 00:01:13;;;;;;;3.20;1.13;;;;;;;;;;5057898;28;20033;-71
2022/12/27 00:03:39;;;;;;;7.45;1.40;;;;;;;;;;5066547;28;20496;-69
2022/12/27 00:06:10;;;;;;;4.55;1.50;;;;;;;;;;5065426;28;20028;-70
2022/12/27 00:08:35;;;;;;;4.50;1.60;;;;;;;;;;5066870;28;20146;-68
2022/12/27 00:11:09;;;;;;;5.95;1.63;;;;;;;;;;5064091;28;20206;-69
2022/12/27 00:13:35;;;;;;;3.78;1.48;;;;;;;;;;5067112;28;20020;-71
2022/12/27 00:16:06;;;;;;;5.03;1.55;;;;;;;;;;5068527;28;20024;-67
2022/12/27 00:18:32;;;;;;;4.80;1.50;;;;;;;;;;5070154;28;20021;-67
2022/12/27 00:20:58;;;;;;;5.50;1.60;;;;;;;;;;5049120;28;20499;-67
2022/12/27 00:23:24;;;;;;;4.85;1.73;;;;;;;;;;5068461;28;20044;-68
2022/12/27 00:25:50;;;;;;;7.90;1.88;;;;;;;;;;5064931;28;20047;-71
2022/12/27 00:28:16;;;;;;;3.30;1.38;;;;;;;;;;5049894;28;20488;-69
2022/12/27 00:30:42;;;;;;;3.15;1.30;;;;;;;;;;5069319;28;20487;-68
2022/12/27 00:33:07;;;;;;;4.18;1.73;;;;;;;;;;5069662;28;20063;-67
2022/12/27 00:35:33;;;;;;;3.92;1.67;;;;;;;;;;5067537;28;20032;-70
2022/12/27 00:37:58;;;;;;;6.03;1.92;;;;;;;;;;5069346;28;20040;-70
2022/12/27 00:40:24;;;;;;;4.78;1.65;;;;;;;;;;5069542;28;20613;-66
2022/12/27 00:42:49;;;;;;;4.85;1.70;;;;;;;;;;5068192;28;20099;-68
2022/12/27 00:45:15;;;;;;;5.30;1.75;;;;;;;;;;5051040;28;20491;-67
2022/12/27 00:47:40;;;;;;;5.53;1.70;;;;;;;;;;5067655;28;20025;-69
2022/12/27 00:50:06;;;;;;;3.55;1.70;;;;;;;;;;5050211;28;20101;-69
2022/12/27 00:52:31;;;;;;;4.50;1.60;;;;;;;;;;5064506;28;20031;-69
2022/12/27 00:54:56;;;;;;;4.65;1.60;;;;;;;;;;5051221;28;20029;-69
2022/12/27 00:57:22;;;;;;;4.38;1.67;;;;;;;;;;5066719;28;20086;-69
2022/12/27 00:59:47;;;;;;;2.25;1.20;;;;;;;;;;5064780;28;20241;-70
2022/12/27 01:02:13;;;;;;;2.35;1.30;;;;;;;;;;5061107;28;20027;-71
2022/12/27 01:04:38;;;;;;;6.07;1.20;;;;;;;;;;5064679;28;20024;-72
2022/12/27 01:07:03;;;;;;;3.97;1.30;;;;;;;;;;5032394;28;20040;-69
2022/12/27 01:09:29;;;;;;;4.57;2.22;;;;;;;;;;5070317;28;20024;-69
2022/12/27 01:11:54;;;;;;;3.42;1.40;;;;;;;;;;5068009;28;20103;-68
2022/12/27 01:14:20;;;;;;;4.90;1.48;;;;;;;;;;5066492;28;20028;-70
2022/12/27 01:16:46;;;;;;;4.47;1.33;;;;;;;;;;5063202;28;21153;-67
2022/12/27 01:19:11;;;;;;;9.07;1.63;;;;;;;;;;5062705;28;20033;-69
2022/12/27 01:21:37;;;;;;;4.10;1.30;;;;;;;;;;5047648;28;20032;-70
2022/12/27 01:24:04;;;;;;;3.25;1.30;;;;;;;;;;5066171;28;20120;-71
2022/12/27 01:26:31;;;;;;;2.15;1.10;;;;;;;;;;5046855;28;20033;-68
2022/12/27 01:28:57;;;;;;;4.97;1.25;;;;;;;;;;5063944;28;20484;-69
2022/12/27 01:31:26;;;;;;;3.42;1.05;;;;;;;;;;5067262;28;20028;-67
2022/12/27 01:33:56;;;;;;;4.68;1.15;;;;;;;;;;5065117;28;20025;-71
2022/12/27 01:36:23;;;;;;;5.25;1.00;;;;;;;;;;5064580;28;20040;-69
2022/12/27 01:38:49;;;;;;;2.25;1.20;;;;;;;;;;5046755;28;20049;-67
2022/12/27 01:44:00;;;;;;;3.10;1.00;;;;;;;;;;5067414;28;20162;-69
2022/12/27 01:46:27;;;;;;;4.32;1.45;;;;;;;;;;5067962;28;20119;-69
2022/12/27 01:48:53;;;;;;;3.92;1.20;;;;;;;;;;5031490;28;20119;-69
2022/12/27 01:51:18;;;;;;;7.35;1.42;;;;;;;;;;5064835;28;20033;-67
2022/12/27 01:53:47;;;;;;;3.28;1.30;;;;;;;;;;5065061;28;20048;-68
2022/12/27 01:56:27;;;;;;;5.50;1.30;;;;;;;;;;5048620;28;20119;-68
2022/12/27 01:58:56;;;;;;;4.93;1.27;;;;;;;;;;5065245;28;20131;-70
2022/12/27 02:01:29;;;;;;;5.60;1.40;;;;;;;;;;5065449;28;20527;-71
2022/12/27 02:04:11;;;;;;;3.72;1.20;;;;;;;;;;5067397;28;20382;-72
2022/12/27 02:06:37;;;;;;;4.72;1.10;;;;;;;;;;5060900;28;20059;-70
2022/12/27 02:09:15;;;;;;;2.25;0.90;;;;;;;;;;5066088;28;20021;-72
2022/12/27 02:11:49;;;;;;;2.67;1.00;;;;;;;;;;5045846;28;20033;-72
2022/12/27 02:14:19;;;;;;;4.10;1.38;;;;;;;;;;5050245;28;20032;-72
2022/12/27 02:16:44;;;;;;;4.78;1.27;;;;;;;;;;5059994;28;20037;-72
2022/12/27 02:19:39;;;;;;;1.80;1.00;;;;;;;;;;5066673;28;20024;-70
2022/12/27 02:24:01;;;;;;;5.85;1.25;;;;;;;;;;5033232;28;20056;-70
2022/12/27 02:25:38;;;;;;;3.55;1.20;;;;;;;;;;5054067;28;20040;-71
2022/12/27 02:28:25;;;;;;;3.70;1.13;;;;;;;;;;5067631;28;20529;-72
2022/12/27 02:30:57;;;;;;;4.43;1.20;;;;;;;;;;5065146;28;20517;-71
2022/12/27 02:33:28;;;;;;;2.28;1.35;;;;;;;;;;5067923;28;20024;-71
2022/12/27 02:36:02;;;;;;;5.15;1.15;;;;;;;;;;5065579;28;20033;-71
2022/12/27 02:38:35;;;;;;;2.78;1.27;;;;;;;;;;5067290;28;20522;-71
2022/12/27 02:55:24;;;;;;;4.70;0.82;;;;;;;;;;5064481;28;20031;-72
2022/12/27 02:58:20;;;;;;;3.60;1.05;;;;;;;;;;5066574;28;20388;-71
2022/12/27 03:04:06;;;;;;;3.15;1.10;;;;;;;;;;5065848;28;20106;-72
2022/12/27 03:07:03;;;;;;;4.20;0.98;;;;;;;;;;5067536;28;20032;-71
2022/12/27 03:16:23;;;;;;;4.95;0.98;;;;;;;;;;4964818;28;20082;-73
2022/12/27 03:19:03;;;;;;;4.03;1.10;;;;;;;;;;5067924;28;20480;-73
2022/12/27 03:27:16;;;;;;;1.85;1.08;;;;;;;;;;5067605;28;20085;-71
2022/12/27 03:35:26;;;;;;;3.78;1.30;;;;;;;;;;5065271;28;20071;-73
2022/12/27 03:38:03;;;;;;;2.55;0.93;;;;;;;;;;5066027;28;20481;-73
2022/12/27 03:43:35;;;;;;;4.53;1.10;;;;;;;;;;5065411;28;20062;-73
2022/12/27 03:46:35;;;;;;;5.75;1.00;;;;;;;;;;5071110;28;20025;-72
2022/12/27 03:49:25;;;;;;;2.85;0.73;;;;;;;;;;5070057;28;20074;-72
2022/12/27 03:52:00;;;;;;;5.88;1.10;;;;;;;;;;5067039;28;20108;-72
2022/12/27 03:54:32;;;;;;;3.50;1.45;;;;;;;;;;5070177;28;20513;-72
2022/12/27 03:57:18;;;;;;;3.83;1.00;;;;;;;;;;5066335;28;20035;-72
2022/12/27 03:59:44;;;;;;;3.15;0.93;;;;;;;;;;5067339;28;20028;-71
2022/12/27 04:02:10;;;;;;;1.58;0.95;;;;;;;;;;5067948;28;20157;-71
2022/12/27 04:04:36;;;;;;;2.72;1.02;;;;;;;;;;5069220;28;20029;-72
2022/12/27 04:07:01;;;;;;;5.45;1.00;;;;;;;;;;5069458;28;20025;-72
2022/12/27 04:36:48;;;;;;;2.92;1.20;;;;;;;;;;5067720;28;20121;-71
2022/12/27 04:39:14;;;;;;;2.75;1.38;;;;;;;;;;5052364;28;20083;-73
2022/12/27 04:55:28;;;;;;;4.47;1.08;;;;;;;;;;5070210;28;20383;-73
2022/12/27 04:57:55;;;;;;;5.55;1.17;;;;;;;;;;5068981;28;20143;-72
2022/12/27 05:03:10;;;;;;;5.25;1.45;;;;;;;;;;5062680;28;20077;-72
2022/12/27 05:05:36;;;;;;;7.63;1.50;;;;;;;;;;5049579;28;20062;-73
2022/12/27 05:16:15;;;;;;;4.13;1.60;;;;;;;;;;5064221;28;20059;-71
2022/12/27 05:18:40;;;;;;;3.63;1.55;;;;;;;;;;5067713;28;20052;-71
2022/12/27 05:21:06;;;;;;;3.20;1.35;;;;;;;;;;5067159;28;20036;-72
2022/12/27 05:26:27;;;;;;;5.90;1.50;;;;;;;;;;5065838;28;20090;-71
2022/12/27 05:28:54;;;;;;;2.90;1.48;;;;;;;;;;5065394;28;20058;-73
2022/12/27 05:31:21;;;;;;;5.28;1.30;;;;;;;;;;5065963;28;20039;-70
2022/12/27 05:33:48;;;;;;;4.10;1.77;;;;;;;;;;5066410;28;20380;-71
2022/12/27 05:36:13;;;;;;;2.53;1.50;;;;;;;;;;5063584;28;20086;-72
2022/12/27 05:38:39;;;;;;;5.15;1.50;;;;;;;;;;5068221;28;20468;-72
2022/12/27 05:41:04;;;;;;;5.90;1.70;;;;;;;;;;5065831;28;20070;-71
2022/12/27 05:43:30;;;;;;;3.00;1.48;;;;;;;;;;5065748;28;20373;-71
2022/12/27 05:46:02;;;;;;;4.43;1.33;;;;;;;;;;5065207;28;20036;-71
2022/12/27 05:48:28;;;;;;;5.28;1.70;;;;;;;;;;5070181;28;20499;-72
2022/12/27 05:50:53;;;;;;;6.78;1.60;;;;;;;;;;5063996;28;20036;-72
2022/12/27 05:53:19;;;;;;;4.90;1.40;;;;;;;;;;5048769;28;20124;-74
2022/12/27 05:55:51;;;;;;;6.95;1.63;;;;;;;;;;5069085;28;20024;-71
2022/12/27 05:58:17;;;;;;;3.42;1.20;;;;;;;;;;5050511;28;20041;-71
2022/12/27 06:00:42;;;;;;;5.53;1.42;;;;;;;;;;5047986;28;20037;-72
2022/12/27 06:03:07;;;;;;;5.40;1.27;;;;;;;;;;5049106;28;20365;-71
2022/12/27 06:05:33;;;;;;;5.43;1.38;;;;;;;;;;5047842;28;20361;-72
2022/12/27 06:07:58;;;;;;;4.72;1.15;;;;;;;;;;5066115;28;20029;-72
2022/12/27 06:10:24;;;;;;;4.90;1.30;;;;;;;;;;5067387;28;20074;-72
2022/12/27 06:12:49;;;;;;;5.50;1.45;;;;;;;;;;5067145;28;20035;-73
2022/12/27 06:15:15;;;;;;;7.28;2.30;;;;;;;;;;5067998;28;20052;-73
2022/12/27 06:17:42;;;;;;;2.75;0.98;;;;;;;;;;5061011;28;20475;-72
2022/12/27 06:20:08;;;;;;;2.30;0.98;;;;;;;;;;5065139;28;20609;-71
2022/12/27 06:22:33;;;;;;;4.82;1.10;;;;;;;;;;5050057;28;20020;-71
2022/12/27 06:24:59;;;;;;;3.55;1.42;;;;;;;;;;5068822;28;20020;-73
2022/12/27 06:27:24;;;;;;;4.78;1.60;;;;;;;;;;5067256;28;20119;-71
2022/12/27 06:29:50;;;;;;;5.00;1.50;;;;;;;;;;5063729;28;20036;-73
2022/12/27 06:32:16;;;;;;;3.08;1.20;;;;;;;;;;5062655;28;20025;-73
2022/12/27 06:34:42;;;;;;;2.15;1.02;;;;;;;;;;5066431;28;20472;-73
2022/12/27 06:37:09;;;;;;;4.10;1.60;;;;;;;;;;5069344;28;20081;-73
2022/12/27 06:39:34;;;;;;;4.30;1.33;;;;;;;;;;5062792;28;20068;-71
2022/12/27 06:41:59;;;;;;;4.78;1.35;;;;;;;;;;5066456;28;20640;-73
2022/12/27 06:44:26;;;;;;;8.23;1.27;;;;;;;;;;5048519;28;20126;-74
2022/12/27 06:46:51;;;;;;;4.65;1.75;;;;;;;;;;5049928;28;20032;-71
2022/12/27 06:49:16;;;;;;;9.63;2.80;;;;;;;;;;5066119;28;20032;-73
2022/12/27 06:51:42;;;;;;;9.48;2.60;;;;;;;;;;5066853;28;20048;-72
2022/12/27 06:54:07;;;;;;;7.88;2.90;;;;;;;;;;5065782;28;20032;-71
2022/12/27 06:56:33;;;;;;;10.32;2.17;;;;;;;;;;5067308;28;20384;-74
2022/12/27 06:58:58;;;;;;;9.63;2.35;;;;;;;;;;5048372;28;20491;-73
2022/12/27 07:01:26;;;;;;;5.07;1.92;;;;;;;;;;5064712;28;20396;-71
2022/12/27 07:03:54;;;;;;;5.40;1.90;;;;;;;;;;5065797;28;20029;-72
2022/12/27 07:06:20;;;;;;;9.00;1.73;;;;;;;;;;5065943;28;20033;-73
2022/12/27 07:08:46;;;;;;;4.85;1.67;;;;;;;;;;5067751;28;20040;-73
2022/12/27 07:11:13;;;;;;;6.90;1.80;;;;;;;;;;5068433;28;20488;-73
2022/12/27 07:13:41;;;;;;;4.97;1.75;;;;;;;;;;5070981;28;20017;-73
2022/12/27 07:16:08;;;;;;;7.28;1.52;;;;;;;;;;5065977;28;20050;-72
2022/12/27 07:18:34;;;;;;;4.93;1.73;;;;;;;;;;5069072;28;20163;-74
2022/12/27 07:21:05;;;;;;;8.35;2.03;;;;;;;;;;5065875;28;20033;-73
2022/12/27 07:23:30;;;;;;;6.38;1.60;;;;;;;;;;5067459;28;20070;-73
2022/12/27 07:26:04;;;;;;;15.95;4.72;;;;;;;;;;5067479;28;20495;-73
2022/12/27 07:28:29;;;;;;;10.32;2.40;;;;;;;;;;5065181;28;20112;-74
2022/12/27 07:30:55;;;;;;;6.00;1.98;;;;;;;;;;5069171;28;20115;-73
2022/12/27 07:33:20;;;;;;;5.90;1.60;;;;;;;;;;5069465;28;20052;-73
2022/12/27 07:35:46;;;;;;;5.82;1.80;;;;;;;;;;5065898;28;20374;-73
2022/12/27 07:38:11;;;;;;;5.28;1.50;;;;;;;;;;5064609;28;20094;-73
2022/12/27 07:40:37;;;;;;;10.95;2.08;;;;;;;;;;5068882;28;20074;-73
2022/12/27 07:43:02;;;;;;;5.45;1.40;;;;;;;;;;5068434;28;20032;-72
2022/12/27 07:45:28;;;;;;;3.10;1.48;;;;;;;;;;5071833;28;20033;-72
2022/12/27 07:47:53;;;;;;;3.97;1.60;;;;;;;;;;5068315;28;20037;-73
2022/12/27 07:50:18;;;;;;;3.35;1.50;;;;;;;;;;5068521;28;20036;-72
2022/12/27 07:52:44;;;;;;;8.10;1.58;;;;;;;;;;5068240;28;20107;-73
2022/12/27 07:55:09;;;;;;;4.22;1.30;;;;;;;;;;5070426;28;20373;-73
2022/12/27 07:57:35;;;;;;;8.65;1.80;;;;;;;;;;5069147;28;20033;-73
2022/12/27 08:00:01;;;;;;;4.35;1.45;;;;;;;;;;5049768;28;20054;-72
2022/12/27 08:02:26;;;;;;;7.00;1.95;;;;;;;;;;5065646;28;20086;-73
2022/12/27 08:04:51;;;;;;;5.82;1.90;;;;;;;;;;5067877;28;20104;-73
2022/12/27 08:07:18;;;;;;;9.40;2.70;;;;;;;;;;5066869;28;20074;-74
2022/12/27 08:09:46;;;;;;;10.10;3.50;;;;;;;;;;5062093;28;20369;-73
2022/12/27 08:12:14;;;;;;;15.50;5.90;;;;;;;;;;5044509;28;20021;-73
2022/12/27 08:14:40;;;;;;;19.85;7.10;;;;;;;;;;5058394;28;20151;-74
2022/12/27 08:17:19;;;;;;;22.15;7.90;;;;;;;;;;5063347;28;20067;-73
2022/12/27 08:19:45;;;;;;;24.23;7.95;;;;;;;;;;5063241;28;20370;-72
2022/12/27 08:22:11;;;;;;;21.38;7.65;;;;;;;;;;5065728;28;20032;-73
2022/12/27 08:24:37;;;;;;;14.10;4.30;;;;;;;;;;5050520;28;20115;-73
2022/12/27 08:27:03;;;;;;;11.10;3.63;;;;;;;;;;5069749;28;20032;-74
2022/12/27 08:29:28;;;;;;;9.48;3.03;;;;;;;;;;5067276;28;20033;-72
2022/12/27 08:31:54;;;;;;;10.50;3.05;;;;;;;;;;5070272;28;20115;-74
2022/12/27 08:34:19;;;;;;;7.13;2.63;;;;;;;;;;5066856;28;20040;-73
2022/12/27 08:36:44;;;;;;;6.85;2.50;;;;;;;;;;5065946;28;20418;-72
2022/12/27 08:39:10;;;;;;;7.10;2.80;;;;;;;;;;5068594;28;20459;-73
2022/12/27 08:41:36;;;;;;;6.43;1.92;;;;;;;;;;5066710;28;20029;-72
2022/12/27 08:44:02;;;;;;;11.13;2.28;;;;;;;;;;5068468;28;20021;-72
2022/12/27 08:46:27;;;;;;;10.82;2.60;;;;;;;;;;5068514;28;20058;-72
2022/12/27 08:48:53;;;;;;;7.65;2.15;;;;;;;;;;5069110;28;20036;-71
2022/12/27 08:51:18;;;;;;;3.22;1.92;;;;;;;;;;5051719;28;20396;-72
2022/12/27 08:53:44;;;;;;;5.03;2.30;;;;;;;;;;5060446;28;20029;-72
2022/12/27 08:56:09;;;;;;;6.15;2.50;;;;;;;;;;5069615;28;20568;-72
2022/12/27 08:58:34;;;;;;;13.20;4.75;;;;;;;;;;5057865;28;20366;-73
2022/12/27 09:01:07;;;;;;;7.25;2.67;;;;;;;;;;5041358;28;20033;-72
2022/12/27 09:03:33;;;;;;;8.05;3.00;;;;;;;;;;5062959;28;20032;-71
2022/12/27 09:06:16;;;;;;;9.35;2.53;;;;;;;;;;5067823;28;20033;-71
2022/12/27 09:08:43;;;;;;;6.38;2.33;;;;;;;;;;5045366;28;20044;-73
2022/12/27 09:11:09;;;;;;;4.25;2.10;;;;;;;;;;5066391;28;20043;-74
2022/12/27 09:13:34;;;;;;;8.88;2.17;;;;;;;;;;5056899;28;20032;-73
2022/12/27 09:16:07;;;;;;;5.88;2.20;;;;;;;;;;5034767;28;20032;-72
2022/12/27 09:18:33;;;;;;;2.97;1.80;;;;;;;;;;5053057;28;20177;-72
2022/12/27 09:21:06;;;;;;;6.35;1.70;;;;;;;;;;5054838;28;20043;-72
2022/12/27 09:23:31;;;;;;;6.68;1.77;;;;;;;;;;5057986;28;20988;-72
2022/12/27 09:25:57;;;;;;;9.32;2.05;;;;;;;;;;5054257;28;20033;-73
2022/12/27 09:28:23;;;;;;;4.43;1.90;;;;;;;;;;5042412;28;20039;-73
2022/12/27 09:30:49;;;;;;;5.82;1.52;;;;;;;;;;5042959;28;20435;-71
2022/12/27 09:33:14;;;;;;;3.47;1.42;;;;;;;;;;5040373;28;20028;-73
2022/12/27 09:35:39;;;;;;;6.38;1.55;;;;;;;;;;5063453;28;20047;-75
2022/12/27 09:38:05;;;;;;;7.97;1.60;;;;;;;;;;5064834;28;20086;-72
2022/12/27 09:40:30;;;;;;;6.95;1.90;;;;;;;;;;5066477;28;20445;-72
2022/12/27 09:43:06;;;;;;;6.38;1.80;;;;;;;;;;5056157;28;20040;-71
2022/12/27 09:45:47;;;;;;;4.13;1.55;;;;;;;;;;5043136;28;20031;-71
2022/12/27 09:48:20;;;;;;;6.70;3.28;;;;;;;;;;5067503;28;20039;-72
2022/12/27 09:50:51;;;;;;;5.53;2.25;;;;;;;;;;5068084;28;20545;-72
2022/12/27 09:53:21;;;;;;;6.40;2.08;;;;;;;;;;5066477;28;20830;-73
2022/12/27 09:55:54;;;;;;;8.80;2.22;;;;;;;;;;5064174;28;20076;-72
2022/12/27 09:58:37;;;;;;;5.35;1.90;;;;;;;;;;5060371;28;20032;-73
2022/12/27 10:01:17;;;;;;;6.40;2.17;;;;;;;;;;5059075;28;20028;-72
2022/12/27 10:03:43;;;;;;;7.68;2.17;;;;;;;;;;5063316;28;20031;-71
2022/12/27 10:06:17;;;;;;;6.32;2.22;;;;;;;;;;5063128;28;20380;-70
2022/12/27 10:09:04;;;;;;;6.53;1.90;;;;;;;;;;5065490;28;20029;-69
2022/12/27 10:11:44;;;;;;;7.47;2.05;;;;;;;;;;5065246;28;20416;-73
2022/12/27 10:14:43;;;;;;;6.28;1.92;;;;;;;;;;5042858;28;20037;-73
2022/12/27 10:17:34;;;;;;;4.72;1.52;;;;;;;;;;5065751;28;20117;-73
2022/12/27 10:20:15;;;;;;;4.40;1.67;;;;;;;;;;5063088;28;20024;-73
2022/12/27 10:22:47;;;;;;;17.50;2.30;;;;;;;;;;5063044;28;20067;-72
2022/12/27 10:25:16;;;;;;;4.88;1.80;;;;;;;;;;5065796;28;20120;-71
2022/12/27 10:27:41;;;;;;;5.90;2.08;;;;;;;;;;5066802;28;20492;-72
2022/12/27 10:30:15;;;;;;;6.82;1.95;;;;;;;;;;5065661;28;20027;-73
2022/12/27 10:32:41;;;;;;;6.25;1.80;;;;;;;;;;5049082;28;20506;-73
2022/12/27 10:35:06;;;;;;;5.63;1.77;;;;;;;;;;5063814;28;20032;-73
2022/12/27 10:37:32;;;;;;;8.98;2.05;;;;;;;;;;5046741;28;20028;-72
2022/12/27 10:40:08;;;;;;;5.18;1.85;;;;;;;;;;5045062;28;20032;-72
2022/12/27 10:42:37;;;;;;;7.50;1.85;;;;;;;;;;5046784;28;20025;-73
2022/12/27 10:45:31;;;;;;;3.83;1.73;;;;;;;;;;5064035;28;20141;-72
2022/12/27 10:48:16;;;;;;;10.27;1.92;;;;;;;;;;5065832;28;20032;-72
2022/12/27 10:50:46;;;;;;;2.95;1.52;;;;;;;;;;5064164;28;20043;-73
2022/12/27 10:53:38;;;;;;;7.43;2.00;;;;;;;;;;5060876;28;20555;-72
2022/12/27 10:56:08;;;;;;;9.10;2.00;;;;;;;;;;5058461;28;20567;-72
2022/12/27 10:58:48;;;;;;;7.22;2.28;;;;;;;;;;5058418;28;20089;-72
2022/12/27 11:01:17;;;;;;;7.55;1.55;;;;;;;;;;5054487;28;20036;-71
2022/12/27 11:03:42;;;;;;;4.07;1.42;;;;;;;;;;5057609;28;20032;-72
2022/12/27 11:06:18;;;;;;;8.10;1.70;;;;;;;;;;5039668;28;20051;-71
2022/12/27 11:08:43;;;;;;;8.07;1.70;;;;;;;;;;5057259;28;20042;-74
2022/12/27 11:11:21;;;;;;;8.60;1.90;;;;;;;;;;5056223;28;20541;-73
2022/12/27 11:13:47;;;;;;;5.03;1.50;;;;;;;;;;5053617;28;20101;-73
2022/12/27 11:16:17;;;;;;;9.45;1.95;;;;;;;;;;5056208;28;20481;-73
2022/12/27 11:18:46;;;;;;;6.93;1.88;;;;;;;;;;5042797;28;20032;-72
2022/12/27 11:21:13;;;;;;;7.13;1.73;;;;;;;;;;5064126;28;20037;-73
2022/12/27 11:23:49;;;;;;;6.18;1.65;;;;;;;;;;5065116;28;20028;-72
2022/12/27 11:26:40;;;;;;;4.60;1.63;;;;;;;;;;5064574;28;20070;-74
2022/12/27 11:29:05;;;;;;;7.50;1.77;;;;;;;;;;5064276;28;20413;-73
2022/12/27 11:31:41;;;;;;;6.80;1.50;;;;;;;;;;5065891;28;20111;-73
2022/12/27 11:34:15;;;;;;;7.63;1.52;;;;;;;;;;5050082;28;20064;-74
2022/12/27 11:36:44;;;;;;;6.78;1.40;;;;;;;;;;5063559;28;20030;-73
2022/12/27 11:39:44;;;;;;;5.95;1.42;;;;;;;;;;5064125;28;20100;-73
2022/12/27 11:42:31;;;;;;;4.88;1.48;;;;;;;;;;5062302;28;20475;-72
2022/12/27 11:45:01;;;;;;;6.80;1.50;;;;;;;;;;5043149;28;20044;-73
2022/12/27 11:47:33;;;;;;;7.70;1.95;;;;;;;;;;5062132;28;20055;-72
2022/12/27 11:50:32;;;;;;;7.55;1.58;;;;;;;;;;5064405;28;20028;-71
2022/12/27 11:53:13;;;;;;;5.57;1.50;;;;;;;;;;5052935;28;20500;-72
2022/12/27 11:56:03;;;;;;;4.65;1.13;;;;;;;;;;5045527;28;20044;-73
2022/12/27 11:58:41;;;;;;;4.65;1.50;;;;;;;;;;5063206;28;20112;-71
2022/12/27 12:01:31;;;;;;;2.38;1.05;;;;;;;;;;5064920;28;20496;-71
2022/12/27 12:04:12;;;;;;;5.03;1.30;;;;;;;;;;5064726;28;20524;-73
2022/12/27 12:06:49;;;;;;;3.67;1.50;;;;;;;;;;5051687;28;20573;-72
2022/12/27 12:09:17;;;;;;;4.15;1.35;;;;;;;;;;5065358;28;20551;-73
2022/12/27 12:11:55;;;;;;;4.45;1.42;;;;;;;;;;5068709;28;20524;-74
2022/12/27 12:14:50;;;;;;;5.18;2.08;;;;;;;;;;5059049;28;21864;-75
2022/12/27 12:17:33;;;;;;;5.80;1.42;;;;;;;;;;5060596;28;20159;-71
2022/12/27 12:20:22;;;;;;;5.05;1.42;;;;;;;;;;5061762;28;20028;-74
2022/12/27 12:23:02;;;;;;;6.38;1.55;;;;;;;;;;5013430;28;20060;-70
2022/12/27 12:26:10;;;;;;;5.78;1.40;;;;;;;;;;5061869;28;20024;-69
2022/12/27 12:28:58;;;;;;;6.72;1.40;;;;;;;;;;5063468;28;20046;-72
2022/12/27 12:31:51;;;;;;;4.40;1.30;;;;;;;;;;5036950;28;20059;-72
2022/12/27 12:34:41;;;;;;;5.72;1.23;;;;;;;;;;5060845;28;20041;-75
2022/12/27 12:37:25;;;;;;;8.00;1.27;;;;;;;;;;5044233;28;20045;-74
2022/12/27 12:39:53;;;;;;;;;;;;;;;;;;5054125;28;20068;-71
2022/12/27 12:42:41;;;;;;;4.63;1.50;;;;;;;;;;5037086;28;20383;-72
2022/12/27 12:45:18;;;;;;;4.28;1.00;;;;;;;;;;5051518;28;20241;-73
2022/12/27 12:48:00;;;;;;;6.30;1.25;;;;;;;;;;5059152;28;20032;-70
2022/12/27 12:53:22;;;;;;;4.05;1.05;;;;;;;;;;4764537;22;20116;-65
2022/12/27 12:56:10;;;;;;;5.00;1.30;;;;;;;;;;5019702;28;20415;-64
2022/12/27 12:59:00;;;;;;;3.63;1.23;;;;;;;;;;5023986;28;20477;-65
2022/12/27 13:01:43;;;;;;;6.35;1.13;;;;;;;;;;5017755;28;20056;-63
2022/12/27 13:04:41;;;;;;;6.10;1.40;;;;;;;;;;5033383;28;20041;-62
2022/12/27 13:07:31;;;;;;;8.63;1.80;;;;;;;;;;4977890;28;20041;-62
2022/12/27 13:10:08;;;;;;;6.80;1.60;;;;;;;;;;5032860;28;20025;-63
2022/12/27 13:12:59;;;;;;;5.47;1.48;;;;;;;;;;5034139;28;20025;-63
2022/12/27 13:15:49;;;;;;;7.60;1.65;;;;;;;;;;5016005;28;20038;-64
2022/12/27 13:18:42;;;;;;;3.42;1.45;;;;;;;;;;5034162;28;20056;-64
2022/12/27 13:21:35;;;;;;;3.80;1.63;;;;;;;;;;5016897;28;20099;-64
2022/12/27 13:24:38;;;;;;;4.13;1.00;;;;;;;;;;5033569;28;20049;-65
2022/12/27 13:27:12;;;;;;;4.45;1.30;;;;;;;;;;5033563;28;20132;-65
2022/12/27 13:30:08;;;;;;;5.85;1.60;;;;;;;;;;5015376;28;20129;-65
2022/12/27 13:33:01;;;;;;;4.57;1.30;;;;;;;;;;5030355;28;20408;-64
2022/12/27 13:35:39;;;;;;;8.20;1.27;;;;;;;;;;5014625;28;20053;-64
2022/12/27 13:38:13;;;;;;;5.88;1.33;;;;;;;;;;5032605;28;20041;-64
2022/12/27 13:41:14;;;;;;;4.68;1.55;;;;;;;;;;5032407;28;20052;-63
2022/12/27 13:44:00;;;;;;;6.30;1.38;;;;;;;;;;5032507;28;20132;-63
2022/12/27 13:46:35;;;;;;;6.72;1.40;;;;;;;;;;5015948;28;20053;-63
2022/12/27 13:49:24;;;;;;;5.30;1.23;;;;;;;;;;5033682;28;20385;-62
2022/12/27 13:51:51;;;;;;;3.08;1.10;;;;;;;;;;5040415;28;20021;-64
2022/12/27 13:54:35;;;;;;;4.00;1.30;;;;;;;;;;5019169;28;20057;-66
2022/12/27 13:57:16;;;;;;;3.80;1.42;;;;;;;;;;5014287;28;20451;-65
2022/12/27 13:59:50;;;;;;;6.22;1.67;;;;;;;;;;5013132;28;20045;-65
2022/12/27 14:02:37;;;;;;;4.93;1.50;;;;;;;;;;5013295;28;20883;-65
2022/12/27 14:05:09;;;;;;;3.13;1.58;;;;;;;;;;5020087;28;20063;-65
2022/12/27 14:08:11;;;;;;;3.55;1.45;;;;;;;;;;5019015;28;20474;-64
2022/12/27 14:10:45;;;;;;;5.55;1.50;;;;;;;;;;5016690;28;20037;-63
2022/12/27 14:13:11;;;;;;;5.97;1.60;;;;;;;;;;5018130;28;20498;-64
2022/12/27 14:15:37;;;;;;;7.65;2.17;;;;;;;;;;5014347;28;20025;-63
2022/12/27 14:18:02;;;;;;;8.65;1.58;;;;;;;;;;5018961;28;20673;-64
2022/12/27 14:20:43;;;;;;;4.00;1.58;;;;;;;;;;5011959;28;20029;-64
2022/12/27 14:23:14;;;;;;;8.18;2.00;;;;;;;;;;5019434;28;20041;-63
2022/12/27 14:26:03;;;;;;;5.57;1.75;;;;;;;;;;5022994;28;20367;-64
2022/12/27 14:28:41;;;;;;;6.13;1.33;;;;;;;;;;5020752;28;20121;-64
2022/12/27 14:31:19;;;;;;;5.75;1.90;;;;;;;;;;5014635;28;20400;-63
2022/12/27 14:34:22;;;;;;;7.88;1.67;;;;;;;;;;5002936;28;20397;-64
2022/12/27 14:37:12;;;;;;;7.35;1.30;;;;;;;;;;5020298;28;20049;-64
2022/12/27 14:39:55;;;;;;;4.63;1.45;;;;;;;;;;5020402;28;20139;-64
2022/12/27 14:42:51;;;;;;;5.38;1.83;;;;;;;;;;5020169;28;20445;-64
2022/12/27 14:45:32;;;;;;;4.07;1.50;;;;;;;;;;5004965;28;20136;-66
2022/12/27 14:48:45;;;;;;;5.57;1.95;;;;;;;;;;5006106;28;20034;-65
2022/12/27 14:51:30;;;;;;;5.95;1.60;;;;;;;;;;5005407;28;20042;-64
2022/12/27 14:54:14;;;;;;;6.03;1.58;;;;;;;;;;5022229;28;20037;-65
2022/12/27 14:56:57;;;;;;;7.25;2.08;;;;;;;;;;5020255;28;20460;-66
2022/12/27 14:59:58;;;;;;;4.75;1.80;;;;;;;;;;5019309;28;20156;-65
2022/12/27 15:02:48;;;;;;;5.68;1.88;;;;;;;;;;5002932;28;20037;-64
2022/12/27 15:05:33;;;;;;;8.20;2.25;;;;;;;;;;5021059;28;20034;-65
2022/12/27 15:08:20;;;;;;;5.68;2.10;;;;;;;;;;5023087;28;20044;-65
2022/12/27 15:11:00;;;;;;;6.78;2.20;;;;;;;;;;5021995;28;20037;-65
2022/12/27 15:14:03;;;;;;;7.85;2.50;;;;;;;;;;5019679;28;20468;-65
2022/12/27 15:16:40;;;;;;;8.05;2.70;;;;;;;;;;5017804;28;20040;-64
2022/12/27 15:19:08;;;;;;;7.65;2.78;;;;;;;;;;5018391;28;20520;-65
2022/12/27 15:22:16;;;;;;;9.27;2.83;;;;;;;;;;5024821;28;20430;-64
2022/12/27 15:25:05;;;;;;;11.20;2.70;;;;;;;;;;5022508;28;20037;-65
2022/12/27 15:27:51;;;;;;;7.97;2.90;;;;;;;;;;5021516;28;20027;-66
2022/12/27 15:30:26;;;;;;;6.57;2.55;;;;;;;;;;5001651;28;20044;-64
2022/12/27 15:33:05;;;;;;;8.13;2.70;;;;;;;;;;5029668;28;20060;-64
2022/12/27 15:35:54;;;;;;;6.75;2.30;;;;;;;;;;5025999;28;20132;-63
2022/12/27 15:38:53;;;;;;;5.03;2.60;;;;;;;;;;5005787;28;20195;-64
2022/12/27 15:41:53;;;;;;;6.28;2.55;;;;;;;;;;4963839;28;20041;-63
2022/12/27 15:44:25;;;;;;;6.25;2.40;;;;;;;;;;5012715;28;20041;-63
2022/12/27 15:47:14;;;;;;;8.70;2.58;;;;;;;;;;5016307;28;20396;-65
2022/12/27 15:49:45;;;;;;;6.68;2.90;;;;;;;;;;5017685;28;20508;-65
2022/12/27 15:52:52;;;;;;;5.72;2.78;;;;;;;;;;4995315;28;20068;-63
2022/12/27 15:55:38;;;;;;;7.88;2.65;;;;;;;;;;4991265;28;20052;-65
2022/12/27 15:58:13;;;;;;;5.10;2.50;;;;;;;;;;5020535;28;20493;-65
2022/12/27 16:00:40;;;;;;;5.70;2.42;;;;;;;;;;5021896;28;20033;-63
2022/12/27 16:03:38;;;;;;;6.35;2.75;;;;;;;;;;5023460;28;20032;-64
2022/12/27 16:06:06;;;;;;;5.65;2.53;;;;;;;;;;5020941;28;20037;-65
2022/12/27 16:08:41;;;;;;;9.25;3.05;;;;;;;;;;5023231;28;20052;-65
2022/12/27 16:11:11;;;;;;;6.93;2.58;;;;;;;;;;5022681;28;20087;-66
2022/12/27 16:13:38;;;;;;;7.78;2.90;;;;;;;;;;5020794;28;20102;-63
2022/12/27 16:16:05;;;;;;;10.32;2.72;;;;;;;;;;5020864;28;20422;-63
2022/12/27 16:18:49;;;;;;;6.30;2.30;;;;;;;;;;5023093;28;20064;-63
2022/12/27 16:21:14;;;;;;;;;;;;;;;;;;5024510;28;20076;-63
2022/12/27 16:23:45;;;;;;;4.53;1.93;;;;;;;;;;5021424;28;20364;-63
2022/12/27 16:26:18;;;;;;;10.85;2.22;;;;;;;;;;5023809;28;20288;-63
2022/12/27 16:28:55;;;;;;;;;;;;;;;;;;5018828;28;20026;-65
2022/12/27 16:31:23;;;;;;;6.90;2.42;;;;;;;;;;5001205;28;19952;-64
2022/12/27 16:33:50;;;;;;;7.97;2.35;;;;;;;;;;5019162;28;20430;-63
2022/12/27 16:36:34;;;;;;;4.97;2.08;;;;;;;;;;5020633;28;20057;-62
2022/12/27 16:39:32;;;;;;;9.07;2.13;;;;;;;;;;5019837;28;20076;-62
2022/12/27 16:42:04;;;;;;;6.35;2.20;;;;;;;;;;5024817;28;20124;-65
2022/12/27 16:44:44;;;;;;;6.68;1.92;;;;;;;;;;5023798;28;20056;-65
2022/12/27 16:48:00;;;;;;;5.40;2.08;;;;;;;;;;5018928;28;20061;-66
2022/12/27 16:50:52;;;;;;;7.60;2.38;;;;;;;;;;4971585;28;20056;-65
2022/12/27 16:53:42;;;;;;;11.10;2.90;;;;;;;;;;5016865;28;20048;-64
2022/12/27 16:56:17;;;;;;;8.80;3.80;;;;;;;;;;5019115;28;20400;-64
2022/12/27 16:58:43;;;;;;;5.05;2.50;;;;;;;;;;5015778;28;20045;-63
2022/12/27 17:01:28;;;;;;;9.35;2.28;;;;;;;;;;5015712;28;20544;-64
2022/12/27 17:03:57;;;;;;;5.70;2.20;;;;;;;;;;5013512;28;20022;-62